Time;durP1;ratioP1;P1;durP2;ratioP2;P2;SDS_P1;SDS_P2;PMS_P1;PMS_P2;Temp;Humidity;BMP_temperature;BMP_pressure;BME280_temperature;BME280_humidity;BME280_pressure;Samples;Min_cycle;Max_cycle;Signal;HPM_P1;HPM_P2
2023/05/07 00:01:36;;;;;;;;;;;;;;;14.91;100.00;101547.53;10422769;28;19929;-67
2023/05/07 00:06:38;;;;;;;;;;;;;;;15.08;100.00;101543.81;10421971;28;19929;-68
2023/05/07 00:11:40;;;;;;;;;;;;;;;14.99;100.00;101563.69;10421425;28;20372;-67
2023/05/07 00:16:42;;;;;;;;;;;;;;;14.82;100.00;101567.41;10421698;28;19925;-68
2023/05/07 00:21:45;;;;;;;;;;;;;;;14.93;100.00;101564.09;10422209;28;20323;-68
2023/05/07 00:26:47;;;;;;;;;;;;;;;14.97;100.00;101554.19;10422096;28;20380;-67
2023/05/07 00:31:50;;;;;;;;;;;;;;;14.77;100.00;101556.28;10421689;28;19925;-67
2023/05/07 00:36:53;;;;;;;;;;;;;;;14.87;100.00;101548.66;10390965;28;19925;-67
2023/05/07 00:41:55;;;;;;;;;;;;;;;14.64;100.00;101540.44;10416740;28;19944;-67
2023/05/07 00:46:57;;;;;;;;;;;;;;;14.55;100.00;101538.31;10419854;28;20028;-67
2023/05/07 00:52:00;;;;;;;;;;;;;;;14.43;100.00;101526.75;10417967;28;19979;-67
2023/05/07 00:57:03;;;;;;;;;;;;;;;14.36;100.00;101532.53;10396326;28;19925;-68
2023/05/07 01:02:05;;;;;;;;;;;;;;;14.33;100.00;101537.97;10391803;28;20409;-68
2023/05/07 01:07:08;;;;;;;;;;;;;;;14.45;100.00;101534.56;10392025;28;19926;-68
2023/05/07 01:12:10;;;;;;;;;;;;;;;14.16;100.00;101534.56;10399838;28;19972;-67
2023/05/07 01:17:12;;;;;;;;;;;;;;;14.02;100.00;101521.38;10417253;28;20331;-67
2023/05/07 01:22:15;;;;;;;;;;;;;;;14.12;100.00;101522.53;10418627;28;19926;-67
2023/05/07 01:27:18;;;;;;;;;;;;;;;14.12;100.00;101525.16;10417758;28;20426;-67
2023/05/07 01:32:29;;;;;;;;;;;;;;;14.07;100.00;101527.22;10419496;28;19979;-67
2023/05/07 01:37:31;;;;;;;;;;;;;;;14.05;100.00;101524.69;10419973;28;19936;-68
2023/05/07 01:42:34;;;;;;;;;;;;;;;14.13;100.00;101524.22;10417882;28;19926;-68
2023/05/07 01:47:36;;;;;;;;;;;;;;;14.03;100.00;101513.41;10418283;28;19932;-67
2023/05/07 01:52:38;;;;;;;;;;;;;;;14.22;100.00;101523.69;10417539;28;19925;-68
2023/05/07 01:57:40;;;;;;;;;;;;;;;14.15;100.00;101532.88;10419117;28;19929;-68
2023/05/07 02:02:43;;;;;;;;;;;;;;;14.11;100.00;101532.22;10418926;28;19925;-68
2023/05/07 02:07:45;;;;;;;;;;;;;;;14.35;100.00;101528.19;10415899;28;19979;-68
2023/05/07 02:12:47;;;;;;;;;;;;;;;14.29;100.00;101508.34;10418520;28;19929;-67
2023/05/07 02:18:00;;;;;;;;;;;;;;;14.33;100.00;101515.09;10418288;28;20348;-68
2023/05/07 02:23:02;;;;;;;;;;;;;;;14.41;100.00;101509.38;10416198;28;19925;-67
2023/05/07 02:28:04;;;;;;;;;;;;;;;14.20;100.00;101507.09;10417818;28;19929;-68
2023/05/07 02:33:08;;;;;;;;;;;;;;;14.35;100.00;101512.38;10417722;28;19933;-68
2023/05/07 02:38:10;;;;;;;;;;;;;;;14.41;100.00;101509.38;10415679;28;20354;-68
2023/05/07 02:43:12;;;;;;;;;;;;;;;14.23;100.00;101516.63;10417350;28;19929;-67
2023/05/07 02:48:14;;;;;;;;;;;;;;;14.34;100.00;101519.44;10416400;28;20327;-68
2023/05/07 02:53:17;;;;;;;;;;;;;;;14.27;100.00;101516.34;10416022;28;19932;-68
2023/05/07 02:58:19;;;;;;;;;;;;;;;14.19;100.00;101523.00;10416231;28;20376;-67
2023/05/07 03:03:21;;;;;;;;;;;;;;;14.21;100.00;101521.13;10414918;28;19933;-68
2023/05/07 03:08:24;;;;;;;;;;;;;;;14.17;100.00;101523.13;10416065;28;19929;-67
2023/05/07 03:13:26;;;;;;;;;;;;;;;14.13;100.00;101529.50;10414667;28;20327;-68
2023/05/07 03:18:28;;;;;;;;;;;;;;;14.18;100.00;101532.69;10414374;28;19932;-68
2023/05/07 03:23:30;;;;;;;;;;;;;;;14.16;100.00;101526.69;10415555;28;19925;-68
2023/05/07 03:28:33;;;;;;;;;;;;;;;14.13;100.00;101529.50;10415395;28;20331;-68
2023/05/07 03:33:35;;;;;;;;;;;;;;;14.27;100.00;101518.97;10413887;28;20288;-68
2023/05/07 03:38:37;;;;;;;;;;;;;;;14.18;100.00;101529.22;10415288;28;20338;-68
2023/05/07 03:43:39;;;;;;;;;;;;;;;14.18;100.00;101526.59;10415845;28;19933;-68
2023/05/07 03:48:42;;;;;;;;;;;;;;;14.04;100.00;101519.53;10414986;28;19933;-68
2023/05/07 03:53:44;;;;;;;;;;;;;;;14.08;100.00;101528.94;10415011;28;19987;-68
2023/05/07 03:58:47;;;;;;;;;;;;;;;13.98;100.00;101526.00;10414798;28;19925;-67
2023/05/07 04:03:49;;;;;;;;;;;;;;;14.10;100.00;101530.53;10415486;28;19980;-68
2023/05/07 04:08:51;;;;;;;;;;;;;;;14.22;100.00;101522.81;10414464;28;20411;-68
2023/05/07 04:13:53;;;;;;;;;;;;;;;14.19;100.00;101530.88;10414034;28;20376;-68
2023/05/07 04:18:56;;;;;;;;;;;;;;;14.29;100.00;101535.53;10414534;28;19987;-68
2023/05/07 04:23:58;;;;;;;;;;;;;;;14.09;100.00;101536.72;10415052;28;19925;-68
2023/05/07 04:29:00;;;;;;;;;;;;;;;14.24;100.00;101540.22;10414158;28;19925;-68
2023/05/07 04:34:02;;;;;;;;;;;;;;;14.57;100.00;101536.44;10420843;28;19925;-68
2023/05/07 04:39:04;;;;;;;;;;;;;;;14.43;100.00;101536.47;10421571;28;20275;-68
2023/05/07 04:44:07;;;;;;;;;;;;;;;14.44;100.00;101533.72;10421405;28;19932;-68
2023/05/07 04:49:09;;;;;;;;;;;;;;;14.20;100.00;101543.13;10420044;28;19925;-68
2023/05/07 04:54:12;;;;;;;;;;;;;;;14.40;100.00;101552.44;10420958;28;19925;-68
2023/05/07 04:59:14;;;;;;;;;;;;;;;14.38;100.00;101551.72;10421412;28;19925;-68
2023/05/07 05:04:16;;;;;;;;;;;;;;;14.32;100.00;101550.28;10420516;28;19925;-68
2023/05/07 05:09:19;;;;;;;;;;;;;;;14.58;100.00;101558.38;10420250;28;20381;-68
2023/05/07 05:14:21;;;;;;;;;;;;;;;14.60;100.00;101560.00;10420058;28;19975;-68
2023/05/07 05:19:23;;;;;;;;;;;;;;;14.72;100.00;101561.00;10418833;28;19971;-68
2023/05/07 05:24:25;;;;;;;;;;;;;;;14.79;100.00;101575.53;10418584;28;19932;-68
2023/05/07 05:29:28;;;;;;;;;;;;;;;14.77;100.00;101576.56;10418287;28;20380;-67
2023/05/07 05:34:30;;;;;;;;;;;;;;;14.95;100.00;101578.03;10419481;28;19925;-68
2023/05/07 05:39:32;;;;;;;;;;;;;;;15.13;100.00;101580.41;10419173;28;19971;-68
2023/05/07 05:44:34;;;;;;;;;;;;;;;15.01;100.00;101582.91;10419600;28;19975;-68
2023/05/07 05:49:36;;;;;;;;;;;;;;;15.08;100.00;101583.38;10418865;28;20422;-68
2023/05/07 05:54:39;;;;;;;;;;;;;;;15.26;100.00;101585.75;10417990;28;20311;-68
2023/05/07 05:59:41;;;;;;;;;;;;;;;15.46;100.00;101585.31;10417262;28;19929;-67
2023/05/07 06:04:43;;;;;;;;;;;;;;;15.53;100.00;101591.03;10417061;28;19925;-67
2023/05/07 06:09:45;;;;;;;;;;;;;;;15.29;100.00;101598.75;10417245;28;19929;-66
2023/05/07 06:14:48;;;;;;;;;;;;;;;15.32;100.00;101599.41;10417830;28;19925;-66
2023/05/07 06:19:50;;;;;;;;;;;;;;;15.42;100.00;101595.22;10417514;28;19925;-67
2023/05/07 06:24:53;;;;;;;;;;;;;;;15.71;100.00;101595.09;10415077;28;19925;-67
2023/05/07 06:29:55;;;;;;;;;;;;;;;15.53;100.00;101599.81;10417173;28;19932;-67
2023/05/07 06:34:57;;;;;;;;;;;;;;;15.66;100.00;101601.63;10417085;28;19929;-67
2023/05/07 06:39:59;;;;;;;;;;;;;;;15.65;100.00;101602.56;10416104;28;20331;-67
2023/05/07 06:45:02;;;;;;;;;;;;;;;15.81;100.00;101598.00;10417326;28;19936;-67
2023/05/07 06:50:05;;;;;;;;;;;;;;;15.85;100.00;101602.13;10417161;28;19925;-67
2023/05/07 06:55:07;;;;;;;;;;;;;;;15.87;100.00;101610.81;10414309;28;19925;-67
2023/05/07 07:00:10;;;;;;;;;;;;;;;15.78;100.00;101619.31;10391754;28;19925;-67
2023/05/07 07:05:12;;;;;;;;;;;;;;;16.06;100.00;101609.56;10375233;28;19925;-67
2023/05/07 07:10:15;;;;;;;;;;;;;;;16.09;100.00;101614.66;10389489;28;19929;-67
2023/05/07 07:15:18;;;;;;;;;;;;;;;16.26;100.00;101616.13;10416389;28;19932;-67
2023/05/07 07:20:20;;;;;;;;;;;;;;;16.29;100.00;101615.91;10414555;28;20328;-67
2023/05/07 07:25:23;;;;;;;;;;;;;;;16.07;100.00;101621.81;10415324;28;19936;-67
2023/05/07 07:30:26;;;;;;;;;;;;;;;16.20;100.00;101616.53;10416133;28;19925;-67
2023/05/07 07:35:31;;;;;;;;;;;;;;;16.45;100.00;101610.41;10416018;28;19925;-67
2023/05/07 07:40:36;;;;;;;;;;;;;;;16.59;100.00;101620.03;10413409;28;19929;-66
2023/05/07 07:45:39;;;;;;;;;;;;;;;16.58;100.00;101621.00;10415817;28;19929;-65
2023/05/07 07:50:42;;;;;;;;;;;;;;;16.85;100.00;101624.38;10414282;28;19956;-65
2023/05/07 07:55:46;;;;;;;;;;;;;;;16.90;100.00;101622.22;10413931;28;20003;-65
2023/05/07 08:00:48;;;;;;;;;;;;;;;17.11;100.00;101620.81;10414050;28;19925;-65
2023/05/07 08:05:51;;;;;;;;;;;;;;;17.13;100.00;101624.19;10413978;28;19925;-65
2023/05/07 08:10:53;;;;;;;;;;;;;;;17.98;100.00;101622.31;10419732;28;19933;-65
2023/05/07 08:15:55;;;;;;;;;;;;;;;18.38;100.00;101623.75;10418530;28;20296;-65
2023/05/07 08:20:57;;;;;;;;;;;;;;;17.77;100.00;101621.25;10422100;28;19925;-65
2023/05/07 08:26:00;;;;;;;;;;;;;;;18.16;100.00;101620.09;10422048;28;19994;-65
2023/05/07 08:31:02;;;;;;;;;;;;;;;18.33;97.39;101616.13;10422656;28;19928;-65
2023/05/07 08:36:04;;;;;;;;;;;;;;;19.03;95.64;101619.53;10421769;28;20354;-65
2023/05/07 08:41:07;;;;;;;;;;;;;;;19.24;95.16;101632.88;10421595;28;20291;-65
2023/05/07 08:46:11;;;;;;;;;;;;;;;19.36;89.92;101623.06;10420192;28;19932;-66
2023/05/07 08:51:13;;;;;;;;;;;;;;;19.04;92.19;101623.03;10420728;28;19929;-65
2023/05/07 08:56:16;;;;;;;;;;;;;;;18.75;92.33;101624.34;10419835;28;19933;-65
2023/05/07 09:01:18;;;;;;;;;;;;;;;20.11;88.33;101612.50;10421388;28;19932;-66
2023/05/07 09:06:20;;;;;;;;;;;;;;;20.23;83.14;101614.94;10420561;28;20266;-66
2023/05/07 09:11:23;;;;;;;;;;;;;;;20.74;84.07;101617.72;10420310;28;19935;-66
2023/05/07 09:16:25;;;;;;;;;;;;;;;21.02;82.29;101618.78;10420522;28;19925;-66
2023/05/07 09:21:27;;;;;;;;;;;;;;;21.80;78.30;101618.03;10418808;28;19932;-67
2023/05/07 09:26:31;;;;;;;;;;;;;;;21.41;77.42;101629.50;10420310;28;19925;-67
2023/05/07 09:31:36;;;;;;;;;;;;;;;22.36;76.71;101613.72;10419655;28;20384;-67
2023/05/07 09:36:38;;;;;;;;;;;;;;;21.91;73.98;101606.41;10419427;28;19931;-67
2023/05/07 09:41:44;;;;;;;;;;;;;;;22.37;73.16;101605.59;10419836;28;19990;-66
2023/05/07 09:46:47;;;;;;;;;;;;;;;22.69;69.61;101607.00;10418982;28;19926;-66
2023/05/07 09:51:49;;;;;;;;;;;;;;;22.86;67.99;101604.53;10417682;28;20380;-67
2023/05/07 09:56:52;;;;;;;;;;;;;;;23.52;67.66;101606.94;10418052;28;19925;-67
2023/05/07 10:01:55;;;;;;;;;;;;;;;22.80;67.20;101604.16;10417781;28;19925;-67
2023/05/07 10:06:58;;;;;;;;;;;;;;;23.93;65.21;101611.78;10417219;28;19936;-66
2023/05/07 10:12:01;;;;;;;;;;;;;;;24.44;63.85;101610.09;10416858;28;19925;-66
2023/05/07 10:17:03;;;;;;;;;;;;;;;23.68;62.28;101613.41;10417254;28;19933;-66
2023/05/07 10:22:05;;;;;;;;;;;;;;;24.20;63.26;101609.97;10417676;28;19925;-66
2023/05/07 10:27:10;;;;;;;;;;;;;;;23.72;66.41;101609.41;10416896;28;19971;-66
2023/05/07 10:32:12;;;;;;;;;;;;;;;25.08;61.93;101598.13;10415411;28;20245;-67
2023/05/07 10:37:14;;;;;;;;;;;;;;;25.71;60.13;101600.22;10417079;28;19925;-66
2023/05/07 10:42:16;;;;;;;;;;;;;;;25.22;58.72;101602.88;10416904;28;19925;-66
2023/05/07 10:47:18;;;;;;;;;;;;;;;24.34;59.59;101601.34;10417269;28;19925;-66
2023/05/07 10:52:23;;;;;;;;;;;;;;;25.27;60.31;101597.00;10416539;28;19972;-66
2023/05/07 10:57:28;;;;;;;;;;;;;;;25.03;58.93;101606.66;10403910;28;19925;-66
2023/05/07 11:02:49;;;;;;;;;;;;;;;26.08;59.45;101606.09;10409889;28;19929;-66
2023/05/07 11:07:55;;;;;;;;;;;;;;;26.33;56.56;101607.69;10409779;28;19971;-66
2023/05/07 11:12:57;;;;;;;;;;;;;;;26.27;56.61;101602.19;10395455;28;20129;-66
2023/05/07 11:18:00;;;;;;;;;;;;;;;26.48;55.93;101597.09;10412118;28;19967;-66
2023/05/07 11:23:02;;;;;;;;;;;;;;;24.76;57.10;101597.03;10372874;22;19980;-66
2023/05/07 11:28:10;;;;;;;;;;;;;;;24.74;59.27;101599.03;10248905;29;19930;-66
2023/05/07 11:33:12;;;;;;;;;;;;;;;25.05;58.93;101604.66;10247134;29;20440;-66
2023/05/07 11:38:14;;;;;;;;;;;;;;;23.45;58.32;101605.88;10247045;28;19953;-66
2023/05/07 11:43:17;;;;;;;;;;;;;;;24.07;61.21;101610.38;10254068;28;20373;-66
2023/05/07 11:48:19;;;;;;;;;;;;;;;23.22;59.46;101601.94;10255549;28;19972;-66
2023/05/07 11:53:24;;;;;;;;;;;;;;;23.35;60.66;101603.28;10254319;29;19927;-66
2023/05/07 11:58:26;;;;;;;;;;;;;;;23.66;62.62;101602.03;10253581;29;19950;-66
2023/05/07 12:03:29;;;;;;;;;;;;;;;23.78;62.44;101600.78;10255220;28;19927;-66
2023/05/07 12:08:33;;;;;;;;;;;;;;;23.42;63.03;101608.84;10252990;28;19927;-66
2023/05/07 12:13:35;;;;;;;;;;;;;;;23.66;64.32;101602.88;10267970;28;19927;-66
2023/05/07 12:18:37;;;;;;;;;;;;;;;23.50;62.77;101611.59;10459938;28;19971;-67
2023/05/07 12:23:40;;;;;;;;;;;;;;;23.93;59.82;101609.13;10451684;28;19971;-67
2023/05/07 12:28:42;;;;;;;;;;;;;;;23.70;61.43;101612.28;10421559;28;19979;-67
2023/05/07 12:33:45;;;;;;;;;;;;;;;23.65;62.10;101621.72;10420778;28;19948;-67
2023/05/07 12:38:49;;;;;;;;;;;;;;;23.71;60.67;101615.78;10421310;28;19929;-67
2023/05/07 12:43:51;;;;;;;;;;;;;;;23.96;64.24;101619.50;10420451;28;19932;-67
2023/05/07 12:48:54;;;;;;;;;;;;;;;23.96;59.74;101619.50;10417590;28;19929;-66
2023/05/07 12:53:57;;;;;;;;;;;;;;;23.33;60.14;101631.97;10420378;28;19999;-66
2023/05/07 12:58:59;;;;;;;;;;;;;;;22.60;60.86;101621.25;10421501;28;19932;-66
2023/05/07 13:04:02;;;;;;;;;;;;;;;23.37;62.75;101629.84;10420166;28;19925;-66
2023/05/07 13:09:04;;;;;;;;;;;;;;;22.59;59.89;101638.25;10419061;28;20056;-67
2023/05/07 13:14:07;;;;;;;;;;;;;;;22.95;60.96;101633.84;10419421;28;19925;-67
2023/05/07 13:19:10;;;;;;;;;;;;;;;22.61;59.51;101638.94;10418386;28;20379;-68
2023/05/07 13:24:13;;;;;;;;;;;;;;;22.95;60.28;101630.34;10417883;28;19925;-68
2023/05/07 13:29:15;;;;;;;;;;;;;;;22.91;62.67;101636.97;10419193;28;19936;-68
2023/05/07 13:34:17;;;;;;;;;;;;;;;22.51;65.69;101641.66;10420177;28;19929;-69
2023/05/07 13:39:20;;;;;;;;;;;;;;;22.77;62.81;101628.47;10419706;28;19932;-69
2023/05/07 13:44:22;;;;;;;;;;;;;;;22.51;65.81;101627.44;10418082;28;20269;-69
2023/05/07 13:49:24;;;;;;;;;;;;;;;22.06;63.50;101637.78;10418285;28;19929;-68
2023/05/07 13:54:26;;;;;;;;;;;;;;;21.90;60.95;101637.53;10417347;28;19940;-68
2023/05/07 13:59:28;;;;;;;;;;;;;;;22.17;62.50;101635.94;10418579;28;19952;-72
2023/05/07 14:04:31;;;;;;;;;;;;;;;22.01;62.77;101644.56;10417042;28;19925;-71
2023/05/07 14:09:33;;;;;;;;;;;;;;;21.91;60.94;101641.88;10416602;28;19925;-71
2023/05/07 14:14:35;;;;;;;;;;;;;;;21.88;62.13;101637.66;10417597;28;19929;-71
2023/05/07 14:19:37;;;;;;;;;;;;;;;21.70;62.48;101639.34;10455670;28;20441;-71
2023/05/07 14:24:40;;;;;;;;;;;;;;;22.03;61.59;101646.06;10455911;28;19932;-70
2023/05/07 14:29:42;;;;;;;;;;;;;;;21.78;62.98;101644.84;10442033;28;19925;-70
2023/05/07 14:34:45;;;;;;;;;;;;;;;21.56;63.93;101642.47;10417844;28;19936;-70
2023/05/07 14:39:47;;;;;;;;;;;;;;;21.65;64.93;101649.59;10416207;28;19971;-70
2023/05/07 14:44:52;;;;;;;;;;;;;;;21.17;67.42;101664.53;10448242;28;20328;-70
2023/05/07 14:49:55;;;;;;;;;;;;;;;20.12;64.47;101684.13;10450914;28;20313;-70
2023/05/07 14:54:58;;;;;;;;;;;;;;;19.69;66.39;101677.06;10457696;28;19948;-70
2023/05/07 15:00:01;;;;;;;;;;;;;;;19.15;67.31;101680.53;10458068;28;19925;-70
2023/05/07 15:05:03;;;;;;;;;;;;;;;18.37;69.65;101688.31;10441821;28;20367;-69
2023/05/07 15:10:06;;;;;;;;;;;;;;;18.37;72.80;101696.25;10415826;28;19929;-69
2023/05/07 15:15:08;;;;;;;;;;;;;;;18.42;75.44;101701.22;10414847;28;19979;-69
2023/05/07 15:20:11;;;;;;;;;;;;;;;17.36;87.67;101715.16;10431596;28;20295;-70
2023/05/07 15:25:13;;;;;;;;;;;;;;;17.30;86.79;101713.81;10455512;28;19947;-69
2023/05/07 15:30:19;;;;;;;;;;;;;;;17.54;88.80;101705.91;10436550;28;20527;-70
2023/05/07 15:35:22;;;;;;;;;;;;;;;17.38;94.73;101716.75;10416238;28;19925;-71
2023/05/07 15:40:24;;;;;;;;;;;;;;;17.15;94.27;101718.38;10414948;28;19933;-70
2023/05/07 15:45:27;;;;;;;;;;;;;;;17.09;100.00;101724.09;10413351;28;19925;-69
2023/05/07 15:50:29;;;;;;;;;;;;;;;16.96;100.00;101737.31;10429704;28;20024;-70
2023/05/07 15:55:31;;;;;;;;;;;;;;;17.10;100.00;101736.38;10415127;28;19925;-70
2023/05/07 16:00:35;;;;;;;;;;;;;;;17.05;100.00;101735.88;10415613;28;19972;-70
2023/05/07 16:05:37;;;;;;;;;;;;;;;17.21;100.00;101725.88;10415531;28;19925;-69
2023/05/07 16:10:39;;;;;;;;;;;;;;;17.41;100.00;101732.41;10413496;28;19925;-70
2023/05/07 16:15:41;;;;;;;;;;;;;;;17.59;100.00;101724.94;10415323;28;19925;-70
2023/05/07 16:20:44;;;;;;;;;;;;;;;17.64;100.00;101743.16;10414708;28;20367;-70
2023/05/07 16:25:47;;;;;;;;;;;;;;;17.45;100.00;101749.75;10431499;28;19924;-70
2023/05/07 16:30:50;;;;;;;;;;;;;;;17.75;100.00;101753.81;10437568;28;19994;-70
2023/05/07 16:35:52;;;;;;;;;;;;;;;17.72;100.00;101771.72;10421983;28;20346;-69
2023/05/07 16:40:55;;;;;;;;;;;;;;;17.71;100.00;101778.81;10403886;28;19971;-69
2023/05/07 16:45:57;;;;;;;;;;;;;;;17.71;100.00;101781.47;10445346;28;19986;-69
2023/05/07 16:50:59;;;;;;;;;;;;;;;17.38;100.00;101793.53;10437807;28;20019;-69
2023/05/07 16:56:05;;;;;;;;;;;;;;;17.48;100.00;101791.03;10421810;28;19926;-69
2023/05/07 17:01:07;;;;;;;;;;;;;;;17.30;100.00;101795.84;10419952;28;19987;-70
2023/05/07 17:06:13;;;;;;;;;;;;;;;17.36;100.00;101799.88;10419818;28;20383;-69
2023/05/07 17:11:16;;;;;;;;;;;;;;;17.41;100.00;101805.69;10420433;28;19928;-70
2023/05/07 17:16:18;;;;;;;;;;;;;;;17.21;100.00;101812.38;10420036;28;19991;-69
2023/05/07 17:21:20;;;;;;;;;;;;;;;17.27;100.00;101802.19;10420896;28;19925;-69
2023/05/07 17:26:22;;;;;;;;;;;;;;;17.14;100.00;101805.81;10419770;28;19944;-69
2023/05/07 17:31:24;;;;;;;;;;;;;;;17.31;100.00;101800.19;10418921;28;20272;-69
2023/05/07 17:36:27;;;;;;;;;;;;;;;17.35;100.00;101793.72;10419620;28;19925;-69
2023/05/07 17:41:29;;;;;;;;;;;;;;;17.11;100.00;101806.84;10418236;28;19948;-69
2023/05/07 17:46:32;;;;;;;;;;;;;;;17.14;100.00;101806.66;10418918;28;19932;-69
2023/05/07 17:51:34;;;;;;;;;;;;;;;17.02;100.00;101810.97;10418940;28;19929;-69
2023/05/07 17:56:51;;;;;;;;;;;;;;;16.96;100.00;101829.91;10432907;28;19932;-69
2023/05/07 18:01:53;;;;;;;;;;;;;;;17.10;100.00;101823.69;10418341;28;19925;-70
2023/05/07 18:06:56;;;;;;;;;;;;;;;16.96;100.00;101827.25;10417969;28;20423;-70
2023/05/07 18:11:58;;;;;;;;;;;;;;;17.00;100.00;101825.28;10416420;28;19929;-70
2023/05/07 18:17:01;;;;;;;;;;;;;;;16.98;100.00;101828.03;10417414;28;19963;-70
2023/05/07 18:22:03;;;;;;;;;;;;;;;16.94;100.00;101823.06;10416869;28;19925;-70
2023/05/07 18:27:05;;;;;;;;;;;;;;;16.94;100.00;101834.47;10426861;28;19932;-69
2023/05/07 18:32:08;;;;;;;;;;;;;;;16.85;100.00;101829.81;10416554;28;19932;-69
2023/05/07 18:37:10;;;;;;;;;;;;;;;16.97;100.00;101830.78;10433168;28;19925;-69
2023/05/07 18:42:12;;;;;;;;;;;;;;;16.77;100.00;101837.38;10416075;28;19940;-69
2023/05/07 18:47:15;;;;;;;;;;;;;;;16.64;100.00;101840.84;10425283;28;20394;-69
2023/05/07 18:52:20;;;;;;;;;;;;;;;16.68;100.00;101833.56;10415216;28;20299;-69
2023/05/07 18:57:23;;;;;;;;;;;;;;;16.65;100.00;101833.75;10454531;28;19925;-69
2023/05/07 19:02:25;;;;;;;;;;;;;;;16.56;100.00;101840.50;10458157;28;19975;-69
2023/05/07 19:07:28;;;;;;;;;;;;;;;16.65;100.00;101839.88;10454908;28;19925;-69
2023/05/07 19:12:30;;;;;;;;;;;;;;;16.45;100.00;101832.44;10452941;28;20371;-69
2023/05/07 19:17:34;;;;;;;;;;;;;;;16.51;100.00;101839.97;10457681;28;19925;-69
2023/05/07 19:22:37;;;;;;;;;;;;;;;16.52;100.00;101839.00;10435792;28;19929;-68
2023/05/07 19:27:39;;;;;;;;;;;;;;;16.32;100.00;101848.25;10448506;28;19975;-69
2023/05/07 19:32:41;;;;;;;;;;;;;;;16.21;100.00;101853.41;10417495;28;19925;-69
2023/05/07 19:37:44;;;;;;;;;;;;;;;16.33;100.00;101857.88;10416088;28;20003;-69
2023/05/07 19:42:46;;;;;;;;;;;;;;;16.25;100.00;101873.38;10454208;28;20417;-69
2023/05/07 19:47:49;;;;;;;;;;;;;;;16.13;100.00;101881.13;10457046;28;19925;-69
2023/05/07 19:52:52;;;;;;;;;;;;;;;16.14;100.00;101885.47;10414883;28;19929;-69
2023/05/07 19:57:54;;;;;;;;;;;;;;;16.10;100.00;101891.88;10415825;28;19925;-69
2023/05/07 20:02:56;;;;;;;;;;;;;;;16.25;100.00;101895.34;10419513;28;19929;-69
2023/05/07 20:07:59;;;;;;;;;;;;;;;16.21;100.00;101898.31;10422919;28;20391;-69
2023/05/07 20:13:02;;;;;;;;;;;;;;;15.83;100.00;101905.03;10450881;28;20375;-69
2023/05/07 20:18:04;;;;;;;;;;;;;;;15.87;100.00;101903.06;10444057;28;19925;-69
2023/05/07 20:23:06;;;;;;;;;;;;;;;15.95;100.00;101903.44;10424408;28;19968;-69
2023/05/07 20:28:10;;;;;;;;;;;;;;;16.02;100.00;101909.16;10415227;28;19932;-69
2023/05/07 20:33:12;;;;;;;;;;;;;;;15.93;100.00;101924.66;10462168;28;20287;-69
2023/05/07 20:38:14;;;;;;;;;;;;;;;15.94;100.00;101921.06;10444617;28;19939;-69
2023/05/07 20:43:16;;;;;;;;;;;;;;;15.89;100.00;101917.03;10461963;28;19928;-69
2023/05/07 20:48:19;;;;;;;;;;;;;;;15.86;100.00;101925.13;10461783;28;19925;-69
2023/05/07 20:53:21;;;;;;;;;;;;;;;15.77;100.00;101922.13;10462671;28;19928;-68
2023/05/07 20:58:24;;;;;;;;;;;;;;;15.60;100.00;101928.41;10462349;28;20437;-69
2023/05/07 21:03:27;;;;;;;;;;;;;;;15.82;100.00;101929.78;10462776;28;19979;-69
2023/05/07 21:08:29;;;;;;;;;;;;;;;15.65;100.00;101921.97;10462466;28;19925;-69
2023/05/07 21:13:31;;;;;;;;;;;;;;;15.78;100.00;101934.38;10459981;28;20414;-69
2023/05/07 21:18:33;;;;;;;;;;;;;;;15.61;100.00;101940.63;10462227;28;19929;-69
2023/05/07 21:23:36;;;;;;;;;;;;;;;15.68;100.00;101943.75;10444009;28;19925;-68
2023/05/07 21:28:38;;;;;;;;;;;;;;;15.72;100.00;101942.66;10460459;28;19974;-69
2023/05/07 21:33:41;;;;;;;;;;;;;;;15.71;100.00;101935.66;10461594;28;19975;-69
2023/05/07 21:38:43;;;;;;;;;;;;;;;15.86;100.00;101946.25;10443722;28;19928;-69
2023/05/07 21:43:46;;;;;;;;;;;;;;;15.89;100.00;101946.91;10461245;28;19971;-69
2023/05/07 21:48:48;;;;;;;;;;;;;;;15.76;100.00;101954.72;10460896;28;19925;-69
2023/05/07 21:53:50;;;;;;;;;;;;;;;15.87;100.00;101947.94;10460825;28;19928;-69
2023/05/07 21:58:52;;;;;;;;;;;;;;;15.92;100.00;101949.38;10460546;28;19925;-69
2023/05/07 22:03:55;;;;;;;;;;;;;;;15.64;100.00;101955.47;10459766;28;19929;-69
2023/05/07 22:08:57;;;;;;;;;;;;;;;15.77;100.00;101951.16;10459510;28;20012;-69
2023/05/07 22:14:00;;;;;;;;;;;;;;;15.77;100.00;101950.31;10459361;28;19978;-69
2023/05/07 22:19:02;;;;;;;;;;;;;;;15.81;100.00;101956.25;10459815;28;19925;-69
2023/05/07 22:24:06;;;;;;;;;;;;;;;15.65;100.00;101951.88;10457869;28;20283;-69
2023/05/07 22:29:08;;;;;;;;;;;;;;;15.59;100.00;101958.38;10459327;28;19925;-69
2023/05/07 22:34:10;;;;;;;;;;;;;;;15.48;100.00;101963.44;10458611;28;19925;-69
2023/05/07 22:39:12;;;;;;;;;;;;;;;15.59;100.00;101962.81;10458430;28;20379;-69
2023/05/07 22:44:15;;;;;;;;;;;;;;;15.71;100.00;101967.34;10458849;28;19928;-69
2023/05/07 22:49:17;;;;;;;;;;;;;;;15.61;100.00;101972.31;10458570;28;19929;-69
2023/05/07 22:54:19;;;;;;;;;;;;;;;15.54;100.00;101973.63;10457874;28;20411;-69
2023/05/07 22:59:21;;;;;;;;;;;;;;;15.54;100.00;101967.50;10457709;28;20276;-69
2023/05/07 23:04:24;;;;;;;;;;;;;;;15.63;100.00;101971.38;10458140;28;19932;-69
2023/05/07 23:09:26;;;;;;;;;;;;;;;15.70;100.00;101968.28;10456125;28;19933;-69
2023/05/07 23:14:28;;;;;;;;;;;;;;;15.64;100.00;101968.66;10456713;28;19924;-69
2023/05/07 23:19:30;;;;;;;;;;;;;;;15.62;100.00;101973.19;10457759;28;19932;-69
2023/05/07 23:24:33;;;;;;;;;;;;;;;15.71;100.00;101969.97;10457514;28;19924;-69
2023/05/07 23:29:35;;;;;;;;;;;;;;;15.63;100.00;101974.88;10456794;28;19978;-69
2023/05/07 23:34:38;;;;;;;;;;;;;;;15.63;100.00;101985.44;10455534;28;20002;-69
2023/05/07 23:39:40;;;;;;;;;;;;;;;15.71;100.00;101980.53;10438891;22;20299;-67
2023/05/07 23:44:42;;;;;;;;;;;;;;;15.71;100.00;101977.06;10415421;28;19951;-67
2023/05/07 23:49:44;;;;;;;;;;;;;;;15.64;100.00;101984.50;10415198;28;19932;-67
2023/05/07 23:54:47;;;;;;;;;;;;;;;15.73;100.00;101978.66;10415197;28;19925;-67
2023/05/07 23:59:49;;;;;;;;;;;;;;;15.57;100.00;101972.63;10415901;28;19925;-67
